Time;durP1;ratioP1;P1;durP2;ratioP2;P2;SDS_P1;SDS_P2;PMS_P1;PMS_P2;Temp;Humidity;BMP_temperature;BMP_pressure;BME280_temperature;BME280_humidity;BME280_pressure;Samples;Min_cycle;Max_cycle;Signal;HPM_P1;HPM_P2
2021/03/11 00:00:26;;;;;;;16.63;13.97;;;9.00;99.90;;;;;;5070039;28;20177;-78
2021/03/11 00:02:52;;;;;;;15.00;12.55;;;9.00;99.90;;;;;;5071019;28;20641;-78
2021/03/11 00:05:19;;;;;;;15.55;12.20;;;9.10;99.90;;;;;;5070973;28;20251;-78
2021/03/11 00:07:44;;;;;;;15.30;12.25;;;9.10;99.90;;;;;;5071916;28;20256;-78
2021/03/11 00:10:11;;;;;;;15.47;12.10;;;9.10;99.90;;;;;;5073225;28;20270;-78
2021/03/11 00:12:42;;;;;;;16.15;12.98;;;9.20;99.90;;;;;;5077616;28;20602;-78
2021/03/11 00:15:11;;;;;;;14.25;11.50;;;9.20;99.90;;;;;;5073368;28;20160;-78
2021/03/11 00:17:37;;;;;;;13.27;10.63;;;9.30;99.90;;;;;;5073170;28;20196;-78
2021/03/11 00:20:09;;;;;;;14.27;10.48;;;9.30;99.90;;;;;;5056105;28;20204;-78
2021/03/11 00:22:35;;;;;;;13.25;10.40;;;9.30;99.90;;;;;;5074485;28;20192;-78
2021/03/11 00:25:02;;;;;;;14.70;11.17;;;9.40;99.90;;;;;;5074420;28;20251;-78
2021/03/11 00:27:28;;;;;;;14.27;12.10;;;9.40;99.90;;;;;;5072910;28;20218;-78
2021/03/11 00:29:54;;;;;;;11.97;10.40;;;9.50;99.90;;;;;;5072790;28;20172;-78
2021/03/11 00:32:19;;;;;;;12.83;10.90;;;9.50;99.90;;;;;;5074427;28;20271;-78
2021/03/11 00:34:45;;;;;;;12.57;10.37;;;9.50;99.90;;;;;;5073219;28;20169;-78
2021/03/11 00:37:11;;;;;;;11.87;9.70;;;9.60;99.90;;;;;;5072927;28;20204;-78
2021/03/11 00:39:36;;;;;;;13.27;11.20;;;9.60;99.90;;;;;;5074072;28;20161;-78
2021/03/11 00:42:02;;;;;;;14.77;11.50;;;9.70;99.90;;;;;;5072752;28;20169;-78
2021/03/11 00:44:28;;;;;;;11.23;9.90;;;9.70;99.90;;;;;;5072761;28;20179;-79
2021/03/11 00:46:54;;;;;;;11.87;9.77;;;9.80;99.90;;;;;;5074083;28;20569;-78
2021/03/11 00:49:20;;;;;;;11.00;9.70;;;9.80;99.90;;;;;;5076335;28;20598;-78
2021/03/11 00:51:45;;;;;;;13.30;9.83;;;9.90;99.90;;;;;;5073894;28;20577;-78
2021/03/11 00:54:11;;;;;;;13.43;9.63;;;9.90;99.90;;;;;;5056162;28;20192;-78
2021/03/11 00:56:49;;;;;;;13.53;9.57;;;9.90;99.90;;;;;;5096538;22;20248;-80
2021/03/11 00:59:41;;;;;;;;;;;;;;;;;;;;;
2021/03/11 01:02:52;;;;;;;11.75;9.57;;;10.00;99.90;;;;;;5060474;28;20602;-80
2021/03/11 01:05:43;;;;;;;11.98;9.48;;;10.10;99.90;;;;;;5052551;28;20171;-80
2021/03/11 01:08:25;;;;;;;8.82;7.85;;;10.10;99.90;;;;;;5041045;28;20181;-81
2021/03/11 01:11:19;;;;;;;10.25;8.55;;;10.10;99.90;;;;;;5044526;28;20234;-80
2021/03/11 01:14:21;;;;;;;;;;;;;;;;;;;;;
2021/03/11 01:16:59;;;;;;;10.90;7.72;;;10.20;99.90;;;;;;5076539;28;20204;-80
2021/03/11 01:19:51;;;;;;;9.50;8.50;;;10.30;99.90;;;;;;5058180;28;20180;-81
2021/03/11 01:22:53;;;;;;;;;;;;;;;;;;;;;
2021/03/11 01:26:10;;;;;;;12.15;6.90;;;10.30;99.90;;;;;;5059169;28;20204;-81
2021/03/11 01:29:19;;;;;;;;;;;;;;;;;;;;;
2021/03/11 01:31:56;;;;;;;9.45;7.05;;;10.40;99.90;;;;;;5077717;28;20293;-81
2021/03/11 01:35:06;;;;;;;7.80;7.00;;;10.40;99.90;;;;;;5071566;28;20594;-81
2021/03/11 01:37:38;;;;;;;7.50;5.88;;;10.40;99.90;;;;;;5070036;28;20268;-80
2021/03/11 01:40:10;;;;;;;6.82;5.70;;;10.50;99.90;;;;;;5046023;28;20173;-80
2021/03/11 01:42:51;;;;;;;7.25;5.88;;;10.50;99.90;;;;;;5071466;28;20152;-81
2021/03/11 01:49:25;;;;;;;;;;;;;;;;;;;;;
2021/03/11 01:52:25;;;;;;;5.82;5.28;;;10.50;99.90;;;;;;5061239;28;20152;-79
2021/03/11 01:55:14;;;;;;;4.03;3.63;;;10.60;99.90;;;;;;5077487;28;20157;-80
2021/03/11 01:58:45;;;;;;;5.05;3.20;;;10.60;99.90;;;;;;5064604;28;20180;-81
2021/03/11 02:01:27;;;;;;;3.45;3.15;;;10.60;99.90;;;;;;5043160;28;20192;-80
2021/03/11 02:04:01;;;;;;;4.43;3.40;;;10.60;99.90;;;;;;5041135;28;20349;-80
2021/03/11 02:06:51;;;;;;;3.78;3.33;;;10.60;99.90;;;;;;5056823;28;20212;-81
2021/03/11 02:09:53;;;;;;;4.22;3.80;;;10.60;99.90;;;;;;5055770;28;20173;-82
2021/03/11 02:12:58;;;;;;;3.22;2.88;;;10.70;99.90;;;;;;5056683;28;20157;-81
2021/03/11 02:16:11;;;;;;;2.97;2.50;;;10.70;99.90;;;;;;5052393;28;20180;-82
2021/03/11 02:19:08;;;;;;;3.63;3.10;;;10.70;99.90;;;;;;5034490;28;20161;-81
2021/03/11 02:22:19;;;;;;;;;;;;;;;;;;;;;
2021/03/11 02:25:33;;;;;;;3.17;2.47;;;10.70;99.90;;;;;;5036537;28;20173;-81
2021/03/11 02:28:29;;;;;;;2.95;2.13;;;10.70;99.90;;;;;;5045655;28;20608;-81
2021/03/11 02:31:07;;;;;;;4.20;2.00;;;10.80;99.90;;;;;;5024068;28;20176;-81
2021/03/11 02:34:05;;;;;;;1.98;1.73;;;10.80;99.90;;;;;;5039947;28;20215;-81
2021/03/11 02:36:32;;;;;;;2.72;1.90;;;10.80;99.90;;;;;;5072771;28;20213;-81
2021/03/11 02:39:33;;;;;;;3.45;2.42;;;10.90;99.90;;;;;;5070273;28;20161;-81
2021/03/11 02:42:24;;;;;;;2.90;2.08;;;10.80;99.90;;;;;;5055100;28;20161;-81
2021/03/11 02:45:15;;;;;;;3.85;2.35;;;10.90;99.90;;;;;;5040375;28;20241;-81
2021/03/11 02:48:16;;;;;;;3.25;2.22;;;10.90;99.90;;;;;;5071018;28;20181;-81
2021/03/11 02:51:07;;;;;;;2.60;1.98;;;10.90;99.90;;;;;;5049271;28;20658;-82
2021/03/11 02:54:00;;;;;;;2.28;2.00;;;10.90;99.90;;;;;;5050128;28;20177;-82
2021/03/11 02:57:00;;;;;;;;;;;;;;;;;;;;;
2021/03/11 02:59:47;;;;;;;4.00;2.13;;;10.90;99.90;;;;;;5066284;28;20169;-81
2021/03/11 03:02:21;;;;;;;2.55;1.90;;;10.90;99.90;;;;;;5048956;28;20219;-81
2021/03/11 03:05:22;;;;;;;2.15;1.70;;;11.00;99.90;;;;;;5019341;28;20268;-81
2021/03/11 03:07:57;;;;;;;2.13;1.80;;;11.00;99.90;;;;;;5030267;28;20199;-81
2021/03/11 03:11:08;;;;;;;2.90;2.13;;;11.00;99.90;;;;;;5041903;28;20177;-81
2021/03/11 03:14:03;;;;;;;;;;;;;;;;;;;;;
2021/03/11 03:16:55;;;;;;;;;;;;;;;;;;;;;
2021/03/11 03:19:48;;;;;;;2.55;2.20;;;11.00;99.90;;;;;;5043233;28;20567;-82
2021/03/11 03:22:33;;;;;;;2.25;1.95;;;11.00;99.90;;;;;;5043155;28;20173;-81
2021/03/11 03:25:28;;;;;;;2.03;1.65;;;11.00;99.90;;;;;;5044835;28;20191;-81
2021/03/11 03:28:28;;;;;;;;;;;;;;;;;;;;;
2021/03/11 03:31:14;;;;;;;;;;;;;;;;;;;;;
2021/03/11 03:36:50;;;;;;;4.40;2.45;;;11.10;99.90;;;;;;5045903;28;20197;-80
2021/03/11 03:39:51;;;;;;;2.97;2.45;;;11.10;99.90;;;;;;5025058;28;20169;-81
2021/03/11 03:42:25;;;;;;;2.22;2.03;;;11.10;99.90;;;;;;5048302;28;20163;-81
2021/03/11 03:44:58;;;;;;;2.85;1.85;;;11.10;99.90;;;;;;5071554;28;20216;-81
2021/03/11 03:47:53;;;;;;;2.38;2.17;;;11.00;99.90;;;;;;5062091;28;20181;-81
2021/03/11 03:50:29;;;;;;;3.53;2.38;;;11.00;99.90;;;;;;5076768;28;20661;-81
2021/03/11 03:53:48;;;;;;;;;;;;;;;;;;;;;
2021/03/11 03:57:02;;;;;;;3.33;2.10;;;10.90;99.90;;;;;;5063247;28;20217;-81
2021/03/11 03:59:46;;;;;;;2.05;1.63;;;10.80;99.90;;;;;;5063998;28;20164;-81
2021/03/11 04:02:35;;;;;;;3.30;2.30;;;10.80;99.90;;;;;;5080952;28;20179;-80
2021/03/11 04:05:19;;;;;;;3.50;2.50;;;10.80;99.90;;;;;;5056742;28;20164;-80
2021/03/11 04:08:14;;;;;;;2.20;1.98;;;10.70;99.90;;;;;;5049896;28;20292;-81
2021/03/11 04:10:54;;;;;;;2.45;1.98;;;10.70;99.90;;;;;;5054816;28;20256;-80
2021/03/11 04:13:28;;;;;;;2.80;1.75;;;10.70;99.90;;;;;;5057213;28;20173;-81
2021/03/11 04:16:05;;;;;;;2.53;2.00;;;10.80;99.90;;;;;;5054275;28;20188;-80
2021/03/11 04:18:58;;;;;;;2.25;1.95;;;10.80;99.90;;;;;;5052608;28;20252;-81
2021/03/11 04:21:42;;;;;;;;;;;;;;;;;;;;;
2021/03/11 04:24:26;;;;;;;3.55;1.80;;;10.80;99.90;;;;;;5050722;28;20515;-80
2021/03/11 04:27:03;;;;;;;1.95;1.70;;;10.90;99.90;;;;;;5052389;28;20189;-81
2021/03/11 04:29:55;;;;;;;2.17;1.73;;;10.90;99.90;;;;;;5066881;28;20510;-80
2021/03/11 04:32:57;;;;;;;2.08;1.48;;;10.90;99.90;;;;;;5034502;28;20192;-81
2021/03/11 04:35:55;;;;;;;2.65;1.85;;;11.00;99.90;;;;;;5063927;28;20175;-80
2021/03/11 04:38:56;;;;;;;2.63;1.90;;;11.00;99.90;;;;;;5032267;28;20184;-80
2021/03/11 04:41:41;;;;;;;2.10;1.60;;;11.00;99.90;;;;;;5043866;28;20173;-80
2021/03/11 04:44:36;;;;;;;2.03;1.70;;;11.10;99.90;;;;;;5061393;28;20145;-80
2021/03/11 04:47:21;;;;;;;1.60;1.30;;;11.10;99.90;;;;;;5066443;28;20235;-81
2021/03/11 04:50:12;;;;;;;2.38;1.38;;;11.20;99.90;;;;;;5029842;28;20157;-81
2021/03/11 04:52:46;;;;;;;1.80;1.70;;;11.20;99.90;;;;;;5063002;28;20259;-81
2021/03/11 04:55:29;;;;;;;1.80;1.38;;;11.20;99.90;;;;;;5063361;28;20157;-79
2021/03/11 04:58:26;;;;;;;1.70;1.30;;;11.20;99.90;;;;;;5025258;28;20201;-80
2021/03/11 05:04:36;;;;;;;1.33;0.93;;;11.20;99.90;;;;;;5019975;28;20272;-80
2021/03/11 05:07:20;;;;;;;1.55;1.38;;;11.30;99.90;;;;;;5009284;28;20208;-80
2021/03/11 05:10:33;;;;;;;1.50;1.10;;;11.40;99.90;;;;;;5041114;28;20204;-81
2021/03/11 05:13:17;;;;;;;;;;;;;;;;;;;;;
2021/03/11 05:16:40;;;;;;;;;;;;;;;;;;;;;
2021/03/11 05:20:05;;;;;;;1.55;1.00;;;11.50;99.90;;;;;;5077913;28;20180;-81
2021/03/11 05:22:44;;;;;;;2.05;1.27;;;11.50;99.90;;;;;;5059556;28;20153;-81
2021/03/11 05:25:51;;;;;;;1.40;1.10;;;11.50;99.90;;;;;;5018281;28;20304;-82
2021/03/11 05:28:24;;;;;;;1.60;1.10;;;11.60;99.90;;;;;;5077612;28;20169;-81
2021/03/11 05:31:21;;;;;;;1.40;0.90;;;11.60;99.90;;;;;;5042749;28;20165;-81
2021/03/11 05:34:04;;;;;;;1.85;1.38;;;11.60;99.90;;;;;;5075773;28;20149;-82
2021/03/11 05:36:51;;;;;;;1.90;1.00;;;11.70;99.90;;;;;;5061264;28;20251;-81
2021/03/11 05:39:49;;;;;;;1.60;1.05;;;11.70;99.90;;;;;;5061766;28;20657;-81
2021/03/11 05:42:25;;;;;;;1.95;1.35;;;11.70;99.90;;;;;;5058978;28;20191;-81
2021/03/11 05:45:04;;;;;;;2.03;1.20;;;11.80;99.90;;;;;;5060366;28;20136;-81
2021/03/11 05:47:31;;;;;;;1.90;1.70;;;11.80;99.90;;;;;;5058757;28;20731;-81
2021/03/11 05:50:01;;;;;;;3.65;1.00;;;11.80;99.90;;;;;;5076931;28;20162;-80
2021/03/11 05:52:30;;;;;;;1.95;1.67;;;11.80;99.90;;;;;;5077259;28;20161;-80
2021/03/11 05:54:58;;;;;;;2.33;1.45;;;11.80;99.90;;;;;;5057825;28;20184;-80
2021/03/11 05:57:27;;;;;;;1.60;1.20;;;11.80;99.90;;;;;;5075497;28;20193;-81
2021/03/11 05:59:56;;;;;;;1.60;1.30;;;11.80;99.90;;;;;;5067218;28;20652;-80
2021/03/11 06:02:23;;;;;;;2.47;1.65;;;11.80;99.90;;;;;;5077688;28;20157;-81
2021/03/11 06:05:00;;;;;;;1.80;1.20;;;11.80;99.90;;;;;;5051398;28;20173;-80
2021/03/11 06:07:37;;;;;;;3.50;1.75;;;11.80;99.90;;;;;;5061335;28;20199;-81
2021/03/11 06:10:14;;;;;;;2.78;1.70;;;11.80;99.90;;;;;;5045224;28;20175;-80
2021/03/11 06:12:58;;;;;;;;;;;;;;;;;;;;;
2021/03/11 06:15:49;;;;;;;;;;;;;;;;;;;;;
2021/03/11 06:18:23;;;;;;;1.55;1.13;;;11.80;99.90;;;;;;5050493;28;20220;-80
2021/03/11 06:20:53;;;;;;;2.88;1.88;;;11.90;99.90;;;;;;5060494;28;20165;-82
2021/03/11 06:23:25;;;;;;;2.30;1.80;;;11.90;99.90;;;;;;5045678;28;20173;-80
2021/03/11 06:25:56;;;;;;;3.40;2.90;;;11.90;99.90;;;;;;5044405;28;20204;-81
2021/03/11 06:28:49;;;;;;;3.10;2.78;;;11.90;99.90;;;;;;5051519;28;20184;-80
2021/03/11 06:31:28;;;;;;;3.20;2.50;;;12.00;99.90;;;;;;5048920;28;20768;-80
2021/03/11 06:33:58;;;;;;;3.15;2.63;;;12.00;99.90;;;;;;5058068;28;20578;-80
2021/03/11 06:36:30;;;;;;;3.50;3.20;;;12.10;99.90;;;;;;5041204;28;20732;-78
2021/03/11 06:39:25;;;;;;;2.22;2.03;;;12.10;99.90;;;;;;5055696;28;20187;-80
2021/03/11 06:41:53;;;;;;;3.13;1.90;;;12.10;99.90;;;;;;5057601;28;20195;-80
2021/03/11 06:44:42;;;;;;;2.92;2.10;;;12.20;99.90;;;;;;5056054;28;20221;-79
2021/03/11 06:47:40;;;;;;;2.70;2.45;;;12.30;99.90;;;;;;5054450;28;20197;-80
2021/03/11 06:50:11;;;;;;;2.65;2.38;;;12.30;99.90;;;;;;5059592;28;20161;-81
2021/03/11 06:52:59;;;;;;;2.88;2.38;;;12.40;99.90;;;;;;5050236;28;20162;-80
2021/03/11 06:58:44;;;;;;;2.30;2.05;;;12.50;99.90;;;;;;5018516;28;20542;-79
2021/03/11 07:01:15;;;;;;;1.90;1.30;;;12.50;99.90;;;;;;4997363;28;20166;-78
2021/03/11 07:03:58;;;;;;;1.75;1.48;;;12.60;99.90;;;;;;5013791;28;20184;-78
2021/03/11 07:06:34;;;;;;;2.05;1.35;;;12.60;99.90;;;;;;5033725;28;20251;-79
2021/03/11 07:09:14;;;;;;;1.80;1.33;;;12.60;99.90;;;;;;5022264;28;20177;-81
2021/03/11 07:11:55;;;;;;;2.40;1.20;;;12.70;99.90;;;;;;5046243;28;20226;-80
2021/03/11 07:14:28;;;;;;;1.50;1.00;;;12.70;99.90;;;;;;5054563;28;20157;-82
2021/03/11 07:17:18;;;;;;;2.15;1.10;;;12.80;99.90;;;;;;5030771;28;20189;-81
2021/03/11 07:20:13;;;;;;;1.67;1.40;;;12.80;99.90;;;;;;4997531;28;20181;-82
2021/03/11 07:22:40;;;;;;;1.80;1.15;;;12.80;99.90;;;;;;5013583;28;20196;-81
2021/03/11 07:25:35;;;;;;;2.95;1.33;;;12.90;99.90;;;;;;5014278;28;20180;-81
2021/03/11 07:28:04;;;;;;;1.40;0.90;;;12.90;99.90;;;;;;5021713;28;20192;-81
2021/03/11 07:30:51;;;;;;;1.35;1.00;;;13.00;99.90;;;;;;5030199;28;20177;-80
2021/03/11 07:33:19;;;;;;;1.60;1.30;;;13.00;99.90;;;;;;5013468;28;20181;-80
2021/03/11 07:35:49;;;;;;;2.13;1.73;;;13.10;99.90;;;;;;5035323;28;20188;-79
2021/03/11 07:38:35;;;;;;;2.42;1.67;;;13.10;99.90;;;;;;5032135;28;20293;-78
2021/03/11 07:41:06;;;;;;;3.17;1.48;;;13.10;99.90;;;;;;5017090;28;20173;-79
2021/03/11 07:43:32;;;;;;;2.33;1.77;;;13.20;99.90;;;;;;5051167;28;20165;-79
2021/03/11 07:46:03;;;;;;;2.80;1.73;;;13.20;99.90;;;;;;5033313;28;20200;-79
2021/03/11 07:48:35;;;;;;;2.58;1.98;;;13.30;99.90;;;;;;5050730;28;20173;-79
2021/03/11 07:51:11;;;;;;;3.00;2.25;;;13.30;99.90;;;;;;5021317;28;20168;-79
2021/03/11 07:53:40;;;;;;;2.38;1.80;;;13.40;99.90;;;;;;5016921;28;20177;-77
2021/03/11 07:56:09;;;;;;;2.35;1.77;;;13.30;99.90;;;;;;5051167;28;20203;-78
2021/03/11 07:58:35;;;;;;;3.33;2.53;;;13.40;99.90;;;;;;5019526;28;20226;-78
2021/03/11 08:01:06;;;;;;;2.37;2.17;;;13.50;99.90;;;;;;5009961;28;20200;-77
2021/03/11 08:03:37;;;;;;;2.70;1.90;;;13.50;99.90;;;;;;5029093;28;20618;-78
2021/03/11 08:06:21;;;;;;;2.40;1.95;;;13.60;99.90;;;;;;5023406;28;20232;-79
2021/03/11 08:08:49;;;;;;;3.65;2.13;;;13.70;99.90;;;;;;5041938;28;20169;-77
2021/03/11 08:11:41;;;;;;;2.60;1.80;;;13.90;99.90;;;;;;5037220;28;20173;-79
2021/03/11 08:14:17;;;;;;;1.90;1.52;;;14.00;99.90;;;;;;5035069;28;20173;-79
2021/03/11 08:16:49;;;;;;;3.65;1.75;;;14.20;99.90;;;;;;5051568;28;20200;-78
2021/03/11 08:19:36;;;;;;;2.40;1.80;;;14.30;99.90;;;;;;5025739;28;20177;-79
2021/03/11 08:22:03;;;;;;;2.70;2.20;;;14.40;99.90;;;;;;5053541;28;20252;-79
2021/03/11 08:24:45;;;;;;;2.80;2.28;;;14.40;99.90;;;;;;5034234;28;20165;-80
2021/03/11 08:27:28;;;;;;;2.35;2.10;;;14.30;99.90;;;;;;5052486;28;20200;-79
2021/03/11 08:29:56;;;;;;;2.88;2.05;;;14.30;99.90;;;;;;5059107;28;20169;-79
2021/03/11 08:32:50;;;;;;;2.70;2.30;;;14.20;99.90;;;;;;5054281;28;20161;-79
2021/03/11 08:35:28;;;;;;;2.88;1.92;;;14.10;99.90;;;;;;5054064;28;20631;-79
2021/03/11 08:37:57;;;;;;;1.88;1.40;;;14.00;99.90;;;;;;5053198;28;20169;-79
2021/03/11 08:40:37;;;;;;;3.00;1.45;;;14.00;99.90;;;;;;5055273;28;20180;-79
2021/03/11 08:43:06;;;;;;;1.90;1.15;;;13.90;99.90;;;;;;5053792;28;20484;-79
2021/03/11 08:45:37;;;;;;;2.10;1.15;;;13.80;99.90;;;;;;5037415;28;20522;-79
2021/03/11 08:48:14;;;;;;;2.15;1.10;;;13.80;99.90;;;;;;5017068;28;20196;-77
2021/03/11 08:50:45;;;;;;;2.33;1.38;;;13.70;99.90;;;;;;5050558;28;20709;-78
2021/03/11 08:53:11;;;;;;;2.33;1.45;;;13.70;99.90;;;;;;5035474;28;20181;-78
2021/03/11 08:55:40;;;;;;;1.50;1.00;;;13.70;99.90;;;;;;5000630;28;20173;-79
2021/03/11 08:58:26;;;;;;;1.75;1.20;;;13.70;99.90;;;;;;5017753;28;20177;-79
2021/03/11 09:00:57;;;;;;;3.22;1.30;;;13.60;99.90;;;;;;5018121;28;20208;-79
2021/03/11 09:03:56;;;;;;;3.53;1.50;;;13.60;99.90;;;;;;5036769;28;20244;-78
2021/03/11 09:06:48;;;;;;;2.65;1.20;;;13.60;99.90;;;;;;4970260;28;20218;-79
2021/03/11 09:09:15;;;;;;;2.08;1.17;;;13.60;99.90;;;;;;5017829;28;20161;-77
2021/03/11 09:11:53;;;;;;;2.05;1.15;;;13.50;99.90;;;;;;5034281;28;20704;-80
2021/03/11 09:14:21;;;;;;;2.50;1.17;;;13.50;99.90;;;;;;5033501;28;20253;-78
2021/03/11 09:16:50;;;;;;;5.85;1.70;;;13.50;99.90;;;;;;5015720;28;20578;-78
2021/03/11 09:19:21;;;;;;;2.63;1.40;;;13.40;99.90;;;;;;5033214;28;20533;-79
2021/03/11 09:21:47;;;;;;;2.10;1.70;;;13.40;99.90;;;;;;5015645;28;20208;-79
2021/03/11 09:24:20;;;;;;;2.30;1.30;;;13.40;99.90;;;;;;5033665;28;20631;-79
2021/03/11 09:26:46;;;;;;;2.70;1.30;;;13.50;99.90;;;;;;5015742;28;20243;-79
2021/03/11 09:29:15;;;;;;;2.13;1.60;;;13.50;99.90;;;;;;5015223;28;20174;-79
2021/03/11 09:31:46;;;;;;;3.70;2.20;;;13.50;99.90;;;;;;5015800;28;20634;-80
2021/03/11 09:34:12;;;;;;;3.33;1.27;;;13.70;99.90;;;;;;4999443;28;20542;-80
2021/03/11 09:36:46;;;;;;;4.57;1.40;;;13.60;99.90;;;;;;5015199;28;20197;-79
2021/03/11 09:39:15;;;;;;;5.07;1.33;;;13.40;99.90;;;;;;5015198;28;20564;-80
2021/03/11 09:41:40;;;;;;;9.32;1.33;;;13.20;99.90;;;;;;5000146;28;20256;-79
2021/03/11 09:44:07;;;;;;;3.73;1.27;;;13.10;99.90;;;;;;5016957;28;20198;-80
2021/03/11 09:46:34;;;;;;;7.35;2.30;;;12.90;99.90;;;;;;5015302;28;20624;-80
2021/03/11 09:49:01;;;;;;;7.93;1.40;;;12.80;99.90;;;;;;5032591;28;20158;-79
2021/03/11 09:51:31;;;;;;;5.45;1.30;;;12.70;99.90;;;;;;4998771;28;20176;-78
2021/03/11 09:54:06;;;;;;;9.05;1.55;;;12.70;99.90;;;;;;5014909;28;20257;-78
2021/03/11 09:56:40;;;;;;;4.40;1.40;;;13.00;99.90;;;;;;5032614;28;20266;-79
2021/03/11 09:59:08;;;;;;;9.23;1.70;;;13.80;99.90;;;;;;4998294;28;20599;-79
2021/03/11 10:01:51;;;;;;;7.20;1.70;;;14.50;99.90;;;;;;4998884;28;20635;-79
2021/03/11 10:04:27;;;;;;;6.07;1.47;;;15.00;99.90;;;;;;5014987;28;21182;-77
2021/03/11 10:06:57;;;;;;;5.53;1.17;;;15.40;99.90;;;;;;5032520;28;20718;-78
2021/03/11 10:09:24;;;;;;;7.03;1.07;;;16.00;99.90;;;;;;5014349;28;20571;-80
2021/03/11 10:11:53;;;;;;;5.17;1.37;;;16.70;99.90;;;;;;5015154;28;20575;-77
2021/03/11 10:14:29;;;;;;;6.60;1.43;;;17.50;99.90;;;;;;5032744;28;20560;-78
2021/03/11 10:17:02;;;;;;;4.03;1.70;;;18.30;99.90;;;;;;4999507;28;20604;-77
2021/03/11 10:19:28;;;;;;;4.30;1.03;;;18.90;99.90;;;;;;5035465;28;21151;-78
2021/03/11 10:22:07;;;;;;;7.53;1.63;;;19.40;99.90;;;;;;4998617;28;20592;-77
2021/03/11 10:24:50;;;;;;;5.90;1.30;;;19.90;99.90;;;;;;5014969;28;20201;-77
2021/03/11 10:27:24;;;;;;;3.63;0.97;;;20.50;99.90;;;;;;4998497;28;20718;-78
2021/03/11 10:30:08;;;;;;;6.00;1.20;;;21.00;99.90;;;;;;5019077;28;20556;-78
2021/03/11 10:32:35;;;;;;;2.80;1.00;;;21.40;99.90;;;;;;5005274;28;21198;-77
2021/03/11 10:35:02;;;;;;;4.10;1.57;;;21.70;99.90;;;;;;4981819;28;20576;-78
2021/03/11 10:37:31;;;;;;;3.83;1.00;;;21.90;99.90;;;;;;5014419;28;20608;-78
2021/03/11 10:40:05;;;;;;;3.43;1.13;;;22.10;99.90;;;;;;4997842;28;20573;-77
2021/03/11 10:42:42;;;;;;;1.77;0.80;;;22.30;99.90;;;;;;4998052;28;20588;-77
2021/03/11 10:45:09;;;;;;;3.13;0.87;;;22.40;99.90;;;;;;5014370;28;21271;-78
2021/03/11 10:47:34;;;;;;;4.00;1.00;;;22.60;99.90;;;;;;5014401;28;20721;-78
2021/03/11 10:50:18;;;;;;;3.50;1.53;;;22.60;99.90;;;;;;5031554;28;20610;-78
2021/03/11 10:52:52;;;;;;;4.33;1.20;;;22.70;99.90;;;;;;5031446;28;20655;-77
2021/03/11 10:55:38;;;;;;;3.60;1.03;;;22.90;99.90;;;;;;5031814;28;20580;-77
2021/03/11 10:58:05;;;;;;;3.20;1.30;;;23.20;99.90;;;;;;5013805;28;21190;-77
2021/03/11 11:00:37;;;;;;;4.60;1.87;;;23.50;99.90;;;;;;5014070;28;20572;-77
2021/03/11 11:03:05;;;;;;;2.97;1.50;;;23.60;99.90;;;;;;5014027;28;20560;-77
2021/03/11 11:05:32;;;;;;;4.77;1.50;;;23.70;99.90;;;;;;4982354;28;20653;-78
2021/03/11 11:07:59;;;;;;;2.60;0.90;;;23.90;98.50;;;;;;5041843;28;20627;-77
2021/03/11 11:10:28;;;;;;;2.57;0.90;;;23.90;98.20;;;;;;5042791;28;20587;-77
2021/03/11 11:12:53;;;;;;;10.50;1.87;;;24.10;94.90;;;;;;5031155;28;20958;-77
2021/03/11 11:15:20;;;;;;;2.80;1.03;;;24.10;93.00;;;;;;5027404;28;20583;-78
2021/03/11 11:17:46;;;;;;;2.47;1.20;;;24.00;92.00;;;;;;5050924;28;20541;-77
2021/03/11 11:20:24;;;;;;;4.53;0.90;;;24.00;90.70;;;;;;5016995;28;20570;-78
2021/03/11 11:22:49;;;;;;;4.10;1.60;;;24.00;90.50;;;;;;5028172;28;20592;-77
2021/03/11 11:25:15;;;;;;;6.00;1.20;;;24.10;87.50;;;;;;5031834;28;20565;-77
2021/03/11 11:27:41;;;;;;;3.10;1.47;;;24.00;86.40;;;;;;5030887;28;20409;-78
2021/03/11 11:30:09;;;;;;;3.83;1.03;;;24.10;86.00;;;;;;4997882;28;20650;-79
2021/03/11 11:32:36;;;;;;;3.97;1.00;;;24.10;82.00;;;;;;5034067;28;20594;-78
2021/03/11 11:35:03;;;;;;;4.00;1.17;;;24.10;82.80;;;;;;5035802;28;21015;-78
2021/03/11 11:37:30;;;;;;;8.10;3.70;;;24.10;79.20;;;;;;5016474;28;20619;-79
2021/03/11 11:39:56;;;;;;;4.20;2.20;;;24.10;76.70;;;;;;5013268;28;21223;-79
2021/03/11 11:42:22;;;;;;;4.87;2.30;;;24.10;76.20;;;;;;5013385;28;20600;-78
2021/03/11 11:44:48;;;;;;;7.00;2.67;;;24.00;72.50;;;;;;4997262;28;20596;-78
2021/03/11 11:47:17;;;;;;;5.93;2.40;;;23.80;71.70;;;;;;5013132;28;20196;-78
2021/03/11 11:49:46;;;;;;;9.30;5.50;;;23.60;69.50;;;;;;5013454;28;20582;-79
2021/03/11 11:52:12;;;;;;;14.33;5.67;;;23.40;69.90;;;;;;5013297;28;20583;-79
2021/03/11 11:54:41;;;;;;;9.70;5.60;;;23.30;70.00;;;;;;5028550;28;20583;-78
2021/03/11 11:57:07;;;;;;;9.53;4.00;;;23.30;68.30;;;;;;5032369;28;20976;-78
2021/03/11 11:59:34;;;;;;;10.53;3.10;;;23.20;66.10;;;;;;5050832;28;20662;-79
2021/03/11 12:02:01;;;;;;;11.57;2.90;;;23.00;65.80;;;;;;5016608;28;20663;-78
2021/03/11 12:04:27;;;;;;;7.27;1.70;;;22.80;60.40;;;;;;5037306;28;20662;-79
2021/03/11 12:06:53;;;;;;;7.03;2.33;;;22.50;64.10;;;;;;5036187;28;20730;-80
2021/03/11 12:09:22;;;;;;;9.40;3.37;;;22.30;64.10;;;;;;5020663;28;20563;-80
2021/03/11 12:11:51;;;;;;;11.60;3.10;;;22.10;65.80;;;;;;5024662;28;20671;-79
2021/03/11 12:14:17;;;;;;;11.90;2.87;;;22.00;67.10;;;;;;5037246;28;20654;-80
2021/03/11 12:16:46;;;;;;;6.97;2.40;;;22.00;67.40;;;;;;5037199;28;21103;-80
2021/03/11 12:19:12;;;;;;;11.50;5.43;;;22.00;66.30;;;;;;5054340;28;20620;-80
2021/03/11 12:21:39;;;;;;;8.65;3.47;;;21.90;66.60;;;;;;5052934;28;20740;-80
2021/03/11 12:24:05;;;;;;;6.77;2.80;;;21.70;62.50;;;;;;5052910;28;20173;-80
2021/03/11 12:26:31;;;;;;;5.80;2.10;;;21.50;61.40;;;;;;5019837;28;20730;-79
2021/03/11 12:28:57;;;;;;;8.33;1.97;;;21.30;62.80;;;;;;5035853;28;20674;-79
2021/03/11 12:31:24;;;;;;;8.88;2.47;;;21.10;64.80;;;;;;5035905;28;20788;-79
2021/03/11 12:33:51;;;;;;;9.10;2.03;;;20.90;63.10;;;;;;5003105;28;20522;-79
2021/03/11 12:36:20;;;;;;;8.40;2.03;;;20.90;63.60;;;;;;5036146;28;20599;-79
2021/03/11 12:38:46;;;;;;;10.83;2.20;;;20.60;64.40;;;;;;5035377;28;20571;-79
2021/03/11 12:41:14;;;;;;;11.03;2.00;;;20.40;64.90;;;;;;5046756;28;20571;-79
2021/03/11 12:43:40;;;;;;;9.00;2.60;;;20.30;65.90;;;;;;5050534;28;20593;-79
2021/03/11 12:46:06;;;;;;;15.30;2.10;;;20.10;67.40;;;;;;5052244;28;20625;-79
2021/03/11 12:48:32;;;;;;;5.60;1.10;;;20.10;68.20;;;;;;5052246;28;20567;-80
2021/03/11 12:50:59;;;;;;;4.03;1.43;;;20.10;69.40;;;;;;5050365;28;20575;-79
2021/03/11 12:53:25;;;;;;;5.68;1.70;;;20.10;70.00;;;;;;5049542;28;20703;-79
2021/03/11 12:55:51;;;;;;;3.40;1.00;;;20.10;66.50;;;;;;5038198;28;20193;-80
2021/03/11 12:58:19;;;;;;;7.20;2.03;;;20.20;69.40;;;;;;5020955;28;20633;-75
2021/03/11 13:00:45;;;;;;;7.20;1.50;;;20.30;69.30;;;;;;5054133;28;21144;-75
2021/03/11 13:03:11;;;;;;;5.07;1.20;;;20.30;69.10;;;;;;5036329;28;21072;-75
2021/03/11 13:05:37;;;;;;;4.10;1.67;;;20.30;68.80;;;;;;5036092;28;20559;-75
2021/03/11 13:08:04;;;;;;;9.20;1.30;;;20.20;69.30;;;;;;5035322;28;20205;-75
2021/03/11 13:10:30;;;;;;;7.40;2.07;;;20.10;70.10;;;;;;5053437;28;20253;-75
2021/03/11 13:12:56;;;;;;;9.10;3.03;;;20.10;69.00;;;;;;5053540;28;21074;-75
2021/03/11 13:15:22;;;;;;;9.73;2.40;;;20.00;68.80;;;;;;5052768;28;20586;-75
2021/03/11 13:17:49;;;;;;;7.33;1.57;;;19.90;68.90;;;;;;5053188;28;20189;-75
2021/03/11 13:20:17;;;;;;;7.90;1.83;;;19.70;68.30;;;;;;5035200;28;20940;-75
2021/03/11 13:22:43;;;;;;;4.17;1.60;;;19.50;67.20;;;;;;5053253;28;20571;-76
2021/03/11 13:25:10;;;;;;;3.63;1.50;;;19.20;66.20;;;;;;5053293;28;20697;-76
2021/03/11 13:27:35;;;;;;;4.37;1.30;;;18.90;66.70;;;;;;5052493;28;20653;-76
2021/03/11 13:30:03;;;;;;;4.70;1.37;;;18.70;67.50;;;;;;5034704;28;20571;-76
2021/03/11 13:32:29;;;;;;;8.30;1.57;;;18.50;67.10;;;;;;5052726;28;20180;-76
2021/03/11 13:34:55;;;;;;;7.70;2.17;;;18.30;67.60;;;;;;5034591;28;20560;-75
2021/03/11 13:37:23;;;;;;;8.17;1.50;;;18.10;68.00;;;;;;5049882;28;20196;-77
2021/03/11 13:39:52;;;;;;;6.20;1.40;;;17.90;67.90;;;;;;5034415;28;21192;-77
2021/03/11 13:42:21;;;;;;;3.00;1.20;;;17.70;68.20;;;;;;5034922;28;20572;-77
2021/03/11 13:44:48;;;;;;;10.03;1.60;;;17.60;68.20;;;;;;5034994;28;20584;-76
2021/03/11 13:47:15;;;;;;;8.23;1.80;;;17.40;68.40;;;;;;5033982;28;20657;-76
2021/03/11 13:49:41;;;;;;;6.80;2.30;;;17.30;69.10;;;;;;5052377;28;20589;-76
2021/03/11 13:52:07;;;;;;;6.60;1.60;;;17.30;69.40;;;;;;5052628;28;20945;-76
2021/03/11 13:54:33;;;;;;;6.20;2.23;;;17.20;70.70;;;;;;5034442;28;20677;-75
2021/03/11 13:56:59;;;;;;;8.50;2.33;;;17.20;70.30;;;;;;5034597;28;20619;-76
2021/03/11 13:59:25;;;;;;;8.83;2.63;;;17.20;70.40;;;;;;5018048;28;20564;-76
2021/03/11 14:01:51;;;;;;;14.00;2.23;;;17.20;70.10;;;;;;5036101;28;20188;-75
2021/03/11 14:04:20;;;;;;;10.03;2.33;;;17.20;70.00;;;;;;5052386;28;20176;-77
2021/03/11 14:06:46;;;;;;;15.43;2.70;;;17.20;69.10;;;;;;5034588;28;20631;-77
2021/03/11 14:09:12;;;;;;;14.67;3.70;;;17.20;68.90;;;;;;5032945;28;21064;-77
2021/03/11 14:11:41;;;;;;;12.33;4.60;;;17.00;67.30;;;;;;5034700;28;20568;-76